sensor_id;sensor_type;location;lat;lon;timestamp;pressure;altitude;pressure_sealevel;temperature;humidity
71299;BME280;59083;47.974;21.722;2022-12-29T00:00:11;101347.31;;;-0.07;100.00
71299;BME280;59083;47.974;21.722;2022-12-29T00:03:13;101340.56;;;-0.11;100.00
71299;BME280;59083;47.974;21.722;2022-12-29T00:06:14;101339.47;;;-0.21;100.00
71299;BME280;59083;47.974;21.722;2022-12-29T00:09:16;101347.16;;;-0.32;100.00
71299;BME280;59083;47.974;21.722;2022-12-29T00:12:17;101342.28;;;-0.38;100.00
71299;BME280;59083;47.974;21.722;2022-12-29T00:15:18;101347.88;;;-0.45;100.00
71299;BME280;59083;47.974;21.722;2022-12-29T00:18:38;101349.84;;;-0.48;100.00
71299;BME280;59083;47.974;21.722;2022-12-29T00:21:39;101349.84;;;-0.48;100.00
71299;BME280;59083;47.974;21.722;2022-12-29T00:24:59;101349.94;;;-0.50;100.00
71299;BME280;59083;47.974;21.722;2022-12-29T00:28:09;101348.47;;;-0.54;100.00
71299;BME280;59083;47.974;21.722;2022-12-29T00:31:30;101349.22;;;-0.52;100.00
71299;BME280;59083;47.974;21.722;2022-12-29T00:34:50;101350.44;;;-0.57;100.00
71299;BME280;59083;47.974;21.722;2022-12-29T00:38:10;101348.19;;;-0.63;100.00
71299;BME280;59083;47.974;21.722;2022-12-29T00:41:30;101347.97;;;-0.60;100.00
71299;BME280;59083;47.974;21.722;2022-12-29T00:45:10;101338.56;;;-0.63;100.00
71299;BME280;59083;47.974;21.722;2022-12-29T00:48:11;101343.78;;;-0.63;100.00
71299;BME280;59083;47.974;21.722;2022-12-29T00:51:13;101350.50;;;-0.59;100.00
71299;BME280;59083;47.974;21.722;2022-12-29T00:54:14;101359.84;;;-0.55;100.00
71299;BME280;59083;47.974;21.722;2022-12-29T00:57:16;101353.69;;;-0.54;100.00
71299;BME280;59083;47.974;21.722;2022-12-29T01:00:19;101359.09;;;-0.57;100.00
71299;BME280;59083;47.974;21.722;2022-12-29T01:03:20;101350.31;;;-0.56;100.00
71299;BME280;59083;47.974;21.722;2022-12-29T01:06:21;101359.84;;;-0.55;100.00
71299;BME280;59083;47.974;21.722;2022-12-29T01:09:23;101353.59;;;-0.52;100.00
71299;BME280;59083;47.974;21.722;2022-12-29T01:12:43;101350.88;;;-0.51;100.00
71299;BME280;59083;47.974;21.722;2022-12-29T01:15:53;101355.19;;;-0.50;100.00
71299;BME280;59083;47.974;21.722;2022-12-29T01:18:54;101355.56;;;-0.56;100.00
71299;BME280;59083;47.974;21.722;2022-12-29T01:21:56;101352.37;;;-0.61;100.00
71299;BME280;59083;47.974;21.722;2022-12-29T01:24:57;101339.84;;;-0.70;100.00
71299;BME280;59083;47.974;21.722;2022-12-29T01:27:59;101352.25;;;-0.73;100.00
71299;BME280;59083;47.974;21.722;2022-12-29T01:31:01;101346.56;;;-0.80;100.00
71299;BME280;59083;47.974;21.722;2022-12-29T01:34:03;101348.44;;;-0.82;100.00
71299;BME280;59083;47.974;21.722;2022-12-29T01:37:04;101346.16;;;-0.88;100.00
71299;BME280;59083;47.974;21.722;2022-12-29T01:40:06;101354.19;;;-0.91;100.00
71299;BME280;59083;47.974;21.722;2022-12-29T01:43:11;101344.09;;;-0.97;100.00
71299;BME280;59083;47.974;21.722;2022-12-29T01:46:36;101352.47;;;-1.06;100.00
71299;BME280;59083;47.974;21.722;2022-12-29T01:49:39;101348.28;;;-1.09;100.00
71299;BME280;59083;47.974;21.722;2022-12-29T01:52:52;101350.22;;;-1.12;100.00
71299;BME280;59083;47.974;21.722;2022-12-29T01:55:58;101350.56;;;-1.18;100.00
71299;BME280;59083;47.974;21.722;2022-12-29T01:59:08;101352.44;;;-1.20;100.00
71299;BME280;59083;47.974;21.722;2022-12-29T02:02:12;101345.69;;;-1.25;100.00
71299;BME280;59083;47.974;21.722;2022-12-29T02:08:55;101330.56;;;-1.19;100.00
71299;BME280;59083;47.974;21.722;2022-12-29T02:11:58;101319.19;;;-1.18;100.00
71299;BME280;59083;47.974;21.722;2022-12-29T02:15:02;101319.03;;;-1.15;100.00
71299;BME280;59083;47.974;21.722;2022-12-29T02:21:43;101314.94;;;-1.05;100.00
71299;BME280;59083;47.974;21.722;2022-12-29T02:32:01;101297.56;;;-1.06;100.00
71299;BME280;59083;47.974;21.722;2022-12-29T02:35:14;101295.91;;;-0.93;100.00
71299;BME280;59083;47.974;21.722;2022-12-29T02:38:33;101286.56;;;-0.97;100.00
71299;BME280;59083;47.974;21.722;2022-12-29T02:45:06;101291.41;;;-0.91;100.00
71299;BME280;59083;47.974;21.722;2022-12-29T02:55:14;101289.75;;;-0.92;100.00
71299;BME280;59083;47.974;21.722;2022-12-29T03:04:40;101263.09;;;-0.99;100.00
71299;BME280;59083;47.974;21.722;2022-12-29T03:08:05;101271.03;;;-1.00;100.00
71299;BME280;59083;47.974;21.722;2022-12-29T03:11:09;101266.94;;;-1.04;100.00
71299;BME280;59083;47.974;21.722;2022-12-29T03:14:57;101265.31;;;-1.07;100.00
71299;BME280;59083;47.974;21.722;2022-12-29T03:21:55;101271.25;;;-1.03;100.00
71299;BME280;59083;47.974;21.722;2022-12-29T03:25:47;101266.16;;;-1.06;100.00
71299;BME280;59083;47.974;21.722;2022-12-29T03:28:53;101269.22;;;-1.14;100.00
71299;BME280;59083;47.974;21.722;2022-12-29T03:31:55;101282.22;;;-1.12;100.00
71299;BME280;59083;47.974;21.722;2022-12-29T03:34:58;101272.69;;;-1.13;100.00
71299;BME280;59083;47.974;21.722;2022-12-29T03:38:11;101273.81;;;-1.17;100.00
71299;BME280;59083;47.974;21.722;2022-12-29T03:41:23;101283.91;;;-1.11;100.00
71299;BME280;59083;47.974;21.722;2022-12-29T03:44:35;101276.56;;;-1.05;100.00
71299;BME280;59083;47.974;21.722;2022-12-29T03:47:37;101274.78;;;-1.04;100.00
71299;BME280;59083;47.974;21.722;2022-12-29T03:50:38;101277.75;;;-1.10;100.00
71299;BME280;59083;47.974;21.722;2022-12-29T03:53:40;101279.69;;;-1.14;100.00
71299;BME280;59083;47.974;21.722;2022-12-29T03:56:42;101276.16;;;-1.13;100.00
71299;BME280;59083;47.974;21.722;2022-12-29T03:59:43;101283.91;;;-1.11;100.00
71299;BME280;59083;47.974;21.722;2022-12-29T04:02:45;101283.16;;;-1.13;100.00
71299;BME280;59083;47.974;21.722;2022-12-29T04:05:47;101276.06;;;-1.11;100.00
71299;BME280;59083;47.974;21.722;2022-12-29T04:08:48;101265.81;;;-1.14;100.00
71299;BME280;59083;47.974;21.722;2022-12-29T04:11:49;101273.66;;;-1.14;100.00
71299;BME280;59083;47.974;21.722;2022-12-29T04:14:51;101279.03;;;-1.17;100.00
71299;BME280;59083;47.974;21.722;2022-12-29T04:17:52;101266.91;;;-1.18;100.00
71299;BME280;59083;47.974;21.722;2022-12-29T04:20:53;101270.28;;;-1.16;100.00
71299;BME280;59083;47.974;21.722;2022-12-29T04:24:01;101275.59;;;-1.18;100.00
71299;BME280;59083;47.974;21.722;2022-12-29T04:27:03;101286.31;;;-1.22;100.00
71299;BME280;59083;47.974;21.722;2022-12-29T04:30:05;101276.97;;;-1.27;100.00
71299;BME280;59083;47.974;21.722;2022-12-29T04:33:07;101285.19;;;-1.33;100.00
71299;BME280;59083;47.974;21.722;2022-12-29T04:36:09;101280.47;;;-1.42;100.00
71299;BME280;59083;47.974;21.722;2022-12-29T04:39:10;101278.44;;;-1.37;100.00
71299;BME280;59083;47.974;21.722;2022-12-29T04:42:12;101274.88;;;-1.36;100.00
71299;BME280;59083;47.974;21.722;2022-12-29T04:45:13;101273.38;;;-1.40;100.00
71299;BME280;59083;47.974;21.722;2022-12-29T04:48:16;101285.69;;;-1.42;100.00
71299;BME280;59083;47.974;21.722;2022-12-29T04:51:17;101305.09;;;-1.46;100.00
71299;BME280;59083;47.974;21.722;2022-12-29T04:54:19;101305.09;;;-1.46;100.00
71299;BME280;59083;47.974;21.722;2022-12-29T04:57:21;101304.25;;;-1.46;100.00
71299;BME280;59083;47.974;21.722;2022-12-29T05:00:24;101296.25;;;-1.43;100.00
71299;BME280;59083;47.974;21.722;2022-12-29T05:03:25;101283.84;;;-1.40;100.00
71299;BME280;59083;47.974;21.722;2022-12-29T05:06:26;101280.31;;;-1.39;100.00
71299;BME280;59083;47.974;21.722;2022-12-29T05:09:27;101278.25;;;-1.34;100.00
71299;BME280;59083;47.974;21.722;2022-12-29T05:12:34;101270.50;;;-1.35;100.00
71299;BME280;59083;47.974;21.722;2022-12-29T05:15:36;101266.97;;;-1.34;100.00
71299;BME280;59083;47.974;21.722;2022-12-29T05:18:37;101272.84;;;-1.31;100.00
71299;BME280;59083;47.974;21.722;2022-12-29T05:21:38;101264.06;;;-1.30;100.00
71299;BME280;59083;47.974;21.722;2022-12-29T05:24:40;101257.16;;;-1.31;100.00
71299;BME280;59083;47.974;21.722;2022-12-29T05:27:41;101256.22;;;-1.30;100.00
71299;BME280;59083;47.974;21.722;2022-12-29T05:30:43;101251.00;;;-1.30;100.00
71299;BME280;59083;47.974;21.722;2022-12-29T05:33:44;101256.59;;;-1.36;100.00
71299;BME280;59083;47.974;21.722;2022-12-29T05:36:46;101246.13;;;-1.36;100.00
71299;BME280;59083;47.974;21.722;2022-12-29T05:39:48;101243.53;;;-1.36;100.00
71299;BME280;59083;47.974;21.722;2022-12-29T05:42:50;101238.66;;;-1.42;100.00
71299;BME280;59083;47.974;21.722;2022-12-29T05:45:51;101243.03;;;-1.42;100.00
71299;BME280;59083;47.974;21.722;2022-12-29T05:48:56;101243.87;;;-1.42;100.00
71299;BME280;59083;47.974;21.722;2022-12-29T05:51:58;101241.38;;;-1.43;100.00
71299;BME280;59083;47.974;21.722;2022-12-29T05:54:59;101254.34;;;-1.42;100.00
71299;BME280;59083;47.974;21.722;2022-12-29T05:58:01;101259.56;;;-1.42;100.00
71299;BME280;59083;47.974;21.722;2022-12-29T06:01:02;101245.91;;;-1.47;100.00
71299;BME280;59083;47.974;21.722;2022-12-29T06:04:04;101251.50;;;-1.53;100.00
71299;BME280;59083;47.974;21.722;2022-12-29T06:07:06;101254.22;;;-1.54;100.00
71299;BME280;59083;47.974;21.722;2022-12-29T06:10:08;101262.16;;;-1.56;100.00
71299;BME280;59083;47.974;21.722;2022-12-29T06:13:09;101272.94;;;-1.62;100.00
71299;BME280;59083;47.974;21.722;2022-12-29T06:16:11;101265.88;;;-1.60;100.00
71299;BME280;59083;47.974;21.722;2022-12-29T06:19:12;101249.84;;;-1.54;100.00
71299;BME280;59083;47.974;21.722;2022-12-29T06:22:14;101273.38;;;-1.54;100.00
71299;BME280;59083;47.974;21.722;2022-12-29T06:25:16;101260.09;;;-1.51;100.00
71299;BME280;59083;47.974;21.722;2022-12-29T06:28:18;101266.66;;;-1.44;100.00
71299;BME280;59083;47.974;21.722;2022-12-29T06:31:19;101276.78;;;-1.38;100.00
71299;BME280;59083;47.974;21.722;2022-12-29T06:34:22;101287.03;;;-1.35;100.00
71299;BME280;59083;47.974;21.722;2022-12-29T06:37:23;101271.34;;;-1.35;100.00
71299;BME280;59083;47.974;21.722;2022-12-29T06:40:25;101267.81;;;-1.34;100.00
71299;BME280;59083;47.974;21.722;2022-12-29T06:43:28;101266.12;;;-1.35;100.00
71299;BME280;59083;47.974;21.722;2022-12-29T06:46:30;101257.00;;;-1.28;100.00
71299;BME280;59083;47.974;21.722;2022-12-29T06:49:31;101264.47;;;-1.21;100.00
71299;BME280;59083;47.974;21.722;2022-12-29T06:52:32;101276.63;;;-1.20;100.00
71299;BME280;59083;47.974;21.722;2022-12-29T06:55:33;101277.00;;;-1.12;100.00
71299;BME280;59083;47.974;21.722;2022-12-29T06:58:35;101266.66;;;-1.00;100.00
71299;BME280;59083;47.974;21.722;2022-12-29T07:01:36;101254.97;;;-0.94;100.00
71299;BME280;59083;47.974;21.722;2022-12-29T07:04:37;101255.53;;;-0.89;99.66
71299;BME280;59083;47.974;21.722;2022-12-29T07:07:38;101252.91;;;-0.89;99.86
71299;BME280;59083;47.974;21.722;2022-12-29T07:10:40;101255.25;;;-0.85;99.59
71299;BME280;59083;47.974;21.722;2022-12-29T07:13:41;101250.69;;;-0.81;99.57
71299;BME280;59083;47.974;21.722;2022-12-29T07:16:42;101243.94;;;-0.85;99.17
71299;BME280;59083;47.974;21.722;2022-12-29T07:19:43;101248.25;;;-0.70;98.97
71299;BME280;59083;47.974;21.722;2022-12-29T07:22:45;101223.56;;;-0.66;98.77
71299;BME280;59083;47.974;21.722;2022-12-29T07:25:48;101221.50;;;-0.61;98.51
71299;BME280;59083;47.974;21.722;2022-12-29T07:28:49;101223.00;;;-0.57;97.98
71299;BME280;59083;47.974;21.722;2022-12-29T07:31:50;101220.75;;;-0.49;97.93
71299;BME280;59083;47.974;21.722;2022-12-29T07:34:51;101225.53;;;-0.55;97.97
71299;BME280;59083;47.974;21.722;2022-12-29T07:37:52;101213.44;;;-0.44;97.98
71299;BME280;59083;47.974;21.722;2022-12-29T07:40:57;101215.59;;;-0.36;98.12
71299;BME280;59083;47.974;21.722;2022-12-29T07:43:58;101206.53;;;-0.45;97.51
71299;BME280;59083;47.974;21.722;2022-12-29T07:47:04;101208.97;;;-0.42;97.79
71299;BME280;59083;47.974;21.722;2022-12-29T07:50:05;101212.31;;;-0.39;98.87
71299;BME280;59083;47.974;21.722;2022-12-29T07:53:07;101223.59;;;-0.25;98.49
71299;BME280;59083;47.974;21.722;2022-12-29T07:56:08;101218.59;;;-0.15;97.91
71299;BME280;59083;47.974;21.722;2022-12-29T07:59:09;101233.53;;;-0.03;97.42
71299;BME280;59083;47.974;21.722;2022-12-29T08:02:10;101235.91;;;0.14;97.36
71299;BME280;59083;47.974;21.722;2022-12-29T08:05:12;101242.44;;;0.21;96.94
71299;BME280;59083;47.974;21.722;2022-12-29T08:08:13;101247.06;;;0.30;96.45
71299;BME280;59083;47.974;21.722;2022-12-29T08:11:15;101259.50;;;0.54;95.66
71299;BME280;59083;47.974;21.722;2022-12-29T08:14:16;101261.78;;;0.85;95.56
71299;BME280;59083;47.974;21.722;2022-12-29T08:17:17;101272.38;;;0.96;93.97
71299;BME280;59083;47.974;21.722;2022-12-29T08:20:18;101252.12;;;1.11;93.67
71299;BME280;59083;47.974;21.722;2022-12-29T08:23:20;101262.81;;;1.20;92.51
71299;BME280;59083;47.974;21.722;2022-12-29T08:26:21;101267.00;;;1.36;92.14
71299;BME280;59083;47.974;21.722;2022-12-29T08:29:22;101270.06;;;1.42;91.71
71299;BME280;59083;47.974;21.722;2022-12-29T08:32:24;101268.78;;;1.48;91.92
71299;BME280;59083;47.974;21.722;2022-12-29T08:35:25;101268.75;;;1.60;91.58
71299;BME280;59083;47.974;21.722;2022-12-29T08:38:27;101270.84;;;1.68;90.88
71299;BME280;59083;47.974;21.722;2022-12-29T08:41:29;101277.56;;;1.72;90.57
71299;BME280;59083;47.974;21.722;2022-12-29T08:44:30;101273.13;;;1.85;91.04
71299;BME280;59083;47.974;21.722;2022-12-29T08:47:32;101285.56;;;1.94;90.57
71299;BME280;59083;47.974;21.722;2022-12-29T08:50:33;101287.56;;;2.03;91.32
71299;BME280;59083;47.974;21.722;2022-12-29T08:53:34;101285.44;;;2.08;90.99
71299;BME280;59083;47.974;21.722;2022-12-29T08:56:35;101281.22;;;2.06;90.53
71299;BME280;59083;47.974;21.722;2022-12-29T08:59:37;101289.00;;;2.07;89.37
71299;BME280;59083;47.974;21.722;2022-12-29T09:02:38;101282.28;;;2.16;89.28
71299;BME280;59083;47.974;21.722;2022-12-29T09:05:39;101269.72;;;2.20;89.22
71299;BME280;59083;47.974;21.722;2022-12-29T09:08:40;101269.28;;;2.26;88.70
71299;BME280;59083;47.974;21.722;2022-12-29T09:11:42;101262.34;;;2.25;88.16
71299;BME280;59083;47.974;21.722;2022-12-29T09:14:43;101268.88;;;2.43;87.86
71299;BME280;59083;47.974;21.722;2022-12-29T09:17:45;101257.06;;;2.48;87.03
71299;BME280;59083;47.974;21.722;2022-12-29T09:20:46;101250.25;;;2.57;87.44
71299;BME280;59083;47.974;21.722;2022-12-29T09:23:48;101249.81;;;2.63;85.98
71299;BME280;59083;47.974;21.722;2022-12-29T09:26:49;101243.63;;;2.75;87.09
71299;BME280;59083;47.974;21.722;2022-12-29T09:29:50;101238.50;;;2.85;86.53
71299;BME280;59083;47.974;21.722;2022-12-29T09:32:51;101244.38;;;2.88;86.53
71299;BME280;59083;47.974;21.722;2022-12-29T09:35:55;101247.37;;;2.95;86.70
71299;BME280;59083;47.974;21.722;2022-12-29T09:38:57;101234.59;;;3.02;86.20
71299;BME280;59083;47.974;21.722;2022-12-29T09:45:14;101218.09;;;3.11;85.86
71299;BME280;59083;47.974;21.722;2022-12-29T09:48:20;101209.47;;;3.20;85.85
71299;BME280;59083;47.974;21.722;2022-12-29T09:51:23;101203.13;;;3.11;84.67
71299;BME280;59083;47.974;21.722;2022-12-29T09:54:43;101203.13;;;3.33;84.37
71299;BME280;59083;47.974;21.722;2022-12-29T09:57:59;101186.72;;;3.41;84.44
71299;BME280;59083;47.974;21.722;2022-12-29T10:01:06;101191.12;;;3.52;83.98
71299;BME280;59083;47.974;21.722;2022-12-29T10:04:08;101180.59;;;3.52;83.60
71299;BME280;59083;47.974;21.722;2022-12-29T10:13:45;101183.97;;;3.86;82.33
71299;BME280;59083;47.974;21.722;2022-12-29T10:17:03;101186.09;;;4.03;80.72
71299;BME280;59083;47.974;21.722;2022-12-29T10:23:48;101178.25;;;4.33;78.00
71299;BME280;59083;47.974;21.722;2022-12-29T10:26:51;101180.84;;;4.44;78.85
71299;BME280;59083;47.974;21.722;2022-12-29T10:29:56;101172.75;;;4.36;77.81
71299;BME280;59083;47.974;21.722;2022-12-29T10:33:02;101166.06;;;4.32;77.30
71299;BME280;59083;47.974;21.722;2022-12-29T10:36:35;101168.53;;;4.34;77.00
71299;BME280;59083;47.974;21.722;2022-12-29T10:39:48;101162.44;;;4.33;77.77
71299;BME280;59083;47.974;21.722;2022-12-29T10:42:53;101160.28;;;4.38;76.45
71299;BME280;59083;47.974;21.722;2022-12-29T10:45:59;101167.72;;;4.33;77.78
71299;BME280;59083;47.974;21.722;2022-12-29T10:49:03;101168.19;;;4.38;77.69
71299;BME280;59083;47.974;21.722;2022-12-29T10:52:06;101170.66;;;4.40;77.13
71299;BME280;59083;47.974;21.722;2022-12-29T10:55:13;101175.31;;;4.47;77.53
71299;BME280;59083;47.974;21.722;2022-12-29T10:58:16;101156.06;;;4.56;78.38
71299;BME280;59083;47.974;21.722;2022-12-29T11:01:18;101162.41;;;4.75;77.55
71299;BME280;59083;47.974;21.722;2022-12-29T11:04:30;101141.41;;;4.94;76.42
71299;BME280;59083;47.974;21.722;2022-12-29T11:07:35;101135.06;;;5.06;75.70
71299;BME280;59083;47.974;21.722;2022-12-29T11:10:39;101127.28;;;5.14;76.21
71299;BME280;59083;47.974;21.722;2022-12-29T11:13:50;101124.28;;;5.28;75.58
71299;BME280;59083;47.974;21.722;2022-12-29T11:20:19;101101.78;;;5.34;75.37
71299;BME280;59083;47.974;21.722;2022-12-29T11:23:41;101082.84;;;5.38;75.13
71299;BME280;59083;47.974;21.722;2022-12-29T11:26:43;101100.41;;;5.59;75.26
71299;BME280;59083;47.974;21.722;2022-12-29T11:29:45;101121.72;;;5.86;75.29
71299;BME280;59083;47.974;21.722;2022-12-29T11:32:53;101108.25;;;5.89;74.86
71299;BME280;59083;47.974;21.722;2022-12-29T11:36:03;101116.28;;;5.78;74.39
71299;BME280;59083;47.974;21.722;2022-12-29T11:39:34;101102.38;;;5.66;74.37
71299;BME280;59083;47.974;21.722;2022-12-29T11:42:38;101106.00;;;5.75;75.29
71299;BME280;59083;47.974;21.722;2022-12-29T11:45:45;101109.62;;;5.93;75.36
71299;BME280;59083;47.974;21.722;2022-12-29T11:48:47;101105.47;;;6.00;74.71
71299;BME280;59083;47.974;21.722;2022-12-29T11:51:51;101108.78;;;5.93;74.60
71299;BME280;59083;47.974;21.722;2022-12-29T11:54:54;101105.03;;;5.95;76.29
71299;BME280;59083;47.974;21.722;2022-12-29T11:57:59;101101.03;;;5.91;76.19
71299;BME280;59083;47.974;21.722;2022-12-29T12:01:10;101094.59;;;5.94;76.64
71299;BME280;59083;47.974;21.722;2022-12-29T12:04:16;101098.78;;;5.87;75.75
71299;BME280;59083;47.974;21.722;2022-12-29T12:07:34;101097.94;;;5.86;76.40
71299;BME280;59083;47.974;21.722;2022-12-29T12:10:50;101104.31;;;5.83;76.41
71299;BME280;59083;47.974;21.722;2022-12-29T12:14:04;101102.09;;;5.79;77.07
71299;BME280;59083;47.974;21.722;2022-12-29T12:17:23;101103.19;;;5.76;77.33
71299;BME280;59083;47.974;21.722;2022-12-29T12:20:46;101092.06;;;5.73;77.77
71299;BME280;59083;47.974;21.722;2022-12-29T12:30:28;101079.69;;;5.64;78.61
71299;BME280;59083;47.974;21.722;2022-12-29T12:33:41;101069.12;;;5.64;79.39
71299;BME280;59083;47.974;21.722;2022-12-29T12:36:54;101071.47;;;5.67;79.36
71299;BME280;59083;47.974;21.722;2022-12-29T12:40:28;101078.97;;;5.71;79.56
71299;BME280;59083;47.974;21.722;2022-12-29T12:43:43;101075.66;;;5.69;79.74
71299;BME280;59083;47.974;21.722;2022-12-29T12:50:26;101071.47;;;5.67;80.72
71299;BME280;59083;47.974;21.722;2022-12-29T13:00:15;101072.84;;;5.71;81.80
71299;BME280;59083;47.974;21.722;2022-12-29T13:07:07;101067.53;;;5.42;81.91
71299;BME280;59083;47.974;21.722;2022-12-29T13:13:52;101068.78;;;5.28;82.64
71299;BME280;59083;47.974;21.722;2022-12-29T13:17:14;101065.44;;;5.26;82.48
71299;BME280;59083;47.974;21.722;2022-12-29T13:33:59;101035.22;;;5.00;83.87
71299;BME280;59083;47.974;21.722;2022-12-29T13:37:08;101043.28;;;4.98;83.79
71299;BME280;59083;47.974;21.722;2022-12-29T13:40:15;101056.63;;;4.97;84.20
71299;BME280;59083;47.974;21.722;2022-12-29T13:43:18;101044.91;;;4.90;84.65
71299;BME280;59083;47.974;21.722;2022-12-29T13:46:28;101054.91;;;4.86;85.23
71299;BME280;59083;47.974;21.722;2022-12-29T13:49:32;101055.84;;;4.76;85.79
71299;BME280;59083;47.974;21.722;2022-12-29T13:52:59;101051.38;;;4.67;85.28
71299;BME280;59083;47.974;21.722;2022-12-29T13:56:09;101037.69;;;4.52;85.76
71299;BME280;59083;47.974;21.722;2022-12-29T13:59:43;101028.94;;;4.51;86.33
71299;BME280;59083;47.974;21.722;2022-12-29T14:06:34;101025.78;;;4.57;88.86
71299;BME280;59083;47.974;21.722;2022-12-29T14:09:50;101031.06;;;4.57;88.33
71299;BME280;59083;47.974;21.722;2022-12-29T14:13:02;101026.47;;;4.60;89.75
71299;BME280;59083;47.974;21.722;2022-12-29T14:16:04;101033.97;;;4.54;90.09
71299;BME280;59083;47.974;21.722;2022-12-29T14:22:26;101021.03;;;4.51;90.43
71299;BME280;59083;47.974;21.722;2022-12-29T14:35:42;101032.72;;;4.58;90.50
71299;BME280;59083;47.974;21.722;2022-12-29T14:38:44;101028.16;;;4.61;90.21
71299;BME280;59083;47.974;21.722;2022-12-29T14:41:46;101023.84;;;4.60;89.83
71299;BME280;59083;47.974;21.722;2022-12-29T14:44:50;101021.44;;;4.56;90.11
71299;BME280;59083;47.974;21.722;2022-12-29T14:47:53;101027.00;;;4.53;89.45
71299;BME280;59083;47.974;21.722;2022-12-29T14:50:55;101025.34;;;4.52;89.63
71299;BME280;59083;47.974;21.722;2022-12-29T14:53:56;101036.16;;;4.49;90.26
71299;BME280;59083;47.974;21.722;2022-12-29T14:56:59;101026.56;;;4.48;89.44
71299;BME280;59083;47.974;21.722;2022-12-29T15:00:27;101027.00;;;4.53;88.69
71299;BME280;59083;47.974;21.722;2022-12-29T15:03:49;101024.50;;;4.52;88.61
71299;BME280;59083;47.974;21.722;2022-12-29T15:06:51;101010.47;;;4.51;88.82
71299;BME280;59083;47.974;21.722;2022-12-29T15:10:03;101007.81;;;4.51;88.53
71299;BME280;59083;47.974;21.722;2022-12-29T15:13:15;101000.72;;;4.42;88.29
71299;BME280;59083;47.974;21.722;2022-12-29T15:16:30;101000.00;;;4.40;88.43
71299;BME280;59083;47.974;21.722;2022-12-29T15:19:32;101012.50;;;4.38;88.63
71299;BME280;59083;47.974;21.722;2022-12-29T15:22:33;101008.31;;;4.36;89.14
71299;BME280;59083;47.974;21.722;2022-12-29T15:25:35;101014.97;;;4.30;88.98
71299;BME280;59083;47.974;21.722;2022-12-29T15:28:44;101006.78;;;4.33;89.15
71299;BME280;59083;47.974;21.722;2022-12-29T15:31:48;101022.34;;;4.36;89.11
71299;BME280;59083;47.974;21.722;2022-12-29T15:34:59;101016.37;;;4.34;89.28
71299;BME280;59083;47.974;21.722;2022-12-29T15:38:14;101028.88;;;4.32;89.72
71299;BME280;59083;47.974;21.722;2022-12-29T15:41:32;101013.03;;;4.32;90.42
71299;BME280;59083;47.974;21.722;2022-12-29T15:44:57;101005.56;;;4.37;89.50
71299;BME280;59083;47.974;21.722;2022-12-29T15:47:58;101007.47;;;4.35;90.65
71299;BME280;59083;47.974;21.722;2022-12-29T15:51:00;101002.22;;;4.35;91.16
71299;BME280;59083;47.974;21.722;2022-12-29T15:54:02;101006.53;;;4.36;91.07
71299;BME280;59083;47.974;21.722;2022-12-29T15:57:04;100998.84;;;4.33;92.07
71299;BME280;59083;47.974;21.722;2022-12-29T16:00:26;100992.50;;;4.36;91.70
71299;BME280;59083;47.974;21.722;2022-12-29T16:03:31;100991.94;;;4.32;92.00
71299;BME280;59083;47.974;21.722;2022-12-29T16:06:38;100995.25;;;4.34;90.80
71299;BME280;59083;47.974;21.722;2022-12-29T16:09:44;100989.13;;;4.34;91.92
71299;BME280;59083;47.974;21.722;2022-12-29T16:12:45;100989.28;;;4.32;91.34
71299;BME280;59083;47.974;21.722;2022-12-29T16:15:48;100979.44;;;4.34;92.01
71299;BME280;59083;47.974;21.722;2022-12-29T16:18:51;100981.09;;;4.35;91.82
71299;BME280;59083;47.974;21.722;2022-12-29T16:21:53;100979.72;;;4.31;91.72
71299;BME280;59083;47.974;21.722;2022-12-29T16:25:18;100971.66;;;4.33;91.29
71299;BME280;59083;47.974;21.722;2022-12-29T16:28:22;100971.06;;;4.29;91.19
71299;BME280;59083;47.974;21.722;2022-12-29T16:31:35;100976.19;;;4.21;91.44
71299;BME280;59083;47.974;21.722;2022-12-29T16:37:39;100985.31;;;4.17;91.54
71299;BME280;59083;47.974;21.722;2022-12-29T16:41:01;100980.03;;;4.17;91.64
71299;BME280;59083;47.974;21.722;2022-12-29T16:47:21;100974.38;;;4.22;91.87
71299;BME280;59083;47.974;21.722;2022-12-29T16:50:22;100966.84;;;4.17;92.50
71299;BME280;59083;47.974;21.722;2022-12-29T16:53:28;100974.59;;;4.09;92.63
71299;BME280;59083;47.974;21.722;2022-12-29T16:56:33;100977.94;;;4.11;92.55
71299;BME280;59083;47.974;21.722;2022-12-29T16:59:38;100975.56;;;4.08;93.85
71299;BME280;59083;47.974;21.722;2022-12-29T17:02:42;100973.88;;;4.07;93.10
71299;BME280;59083;47.974;21.722;2022-12-29T17:05:45;100982.06;;;4.04;92.81
71299;BME280;59083;47.974;21.722;2022-12-29T17:08:47;100984.00;;;4.02;94.00
71299;BME280;59083;47.974;21.722;2022-12-29T17:11:57;100985.59;;;3.93;94.66
71299;BME280;59083;47.974;21.722;2022-12-29T17:15:02;100983.56;;;3.97;94.94
71299;BME280;59083;47.974;21.722;2022-12-29T17:18:06;100975.22;;;3.92;95.48
71299;BME280;59083;47.974;21.722;2022-12-29T17:21:10;100966.84;;;3.87;95.08
71299;BME280;59083;47.974;21.722;2022-12-29T17:24:18;100958.44;;;3.93;95.10
71299;BME280;59083;47.974;21.722;2022-12-29T17:27:24;100968.97;;;3.93;95.34
71299;BME280;59083;47.974;21.722;2022-12-29T17:30:28;100963.94;;;3.90;95.08
71299;BME280;59083;47.974;21.722;2022-12-29T17:33:35;100973.41;;;3.92;95.29
71299;BME280;59083;47.974;21.722;2022-12-29T17:36:37;100968.97;;;3.93;94.60
71299;BME280;59083;47.974;21.722;2022-12-29T17:39:38;100969.50;;;3.87;94.78
71299;BME280;59083;47.974;21.722;2022-12-29T17:42:45;100965.75;;;3.89;94.61
71299;BME280;59083;47.974;21.722;2022-12-29T17:45:51;100957.00;;;3.89;94.56
71299;BME280;59083;47.974;21.722;2022-12-29T17:48:53;100979.75;;;3.90;95.01
71299;BME280;59083;47.974;21.722;2022-12-29T17:51:56;100972.56;;;3.92;94.89